createdAt,value
2019-04-05T07:16:34.552Z,30.3223
2019-04-05T07:16:46.883Z,29.9255
2019-04-05T07:16:59.173Z,28.8086
2019-04-05T07:17:11.510Z,28.9062
2019-04-05T07:17:23.761Z,28.7109
2019-04-05T07:17:36.045Z,28.6072
2019-04-05T07:17:48.307Z,28.6072
2019-04-05T07:18:00.550Z,29.4067
2019-04-05T07:18:12.789Z,28.8086
2019-04-05T07:18:34.162Z,28.6926
2019-04-05T07:18:43.286Z,28.2959
2019-04-05T07:18:55.552Z,28.2959
2019-04-05T07:19:07.795Z,28.6926
2019-04-05T07:19:20.061Z,28.5950
2019-04-05T07:19:32.362Z,28.2959
2019-04-05T07:19:44.629Z,28.2959
2019-04-05T07:19:56.880Z,28.2959
2019-04-05T07:20:09.146Z,28.5950
2019-04-05T07:20:23.736Z,28.2959
2019-04-05T07:20:36.209Z,28.0945
2019-04-05T07:20:48.465Z,27.8931
2019-04-05T07:21:00.730Z,28.0945
2019-04-05T07:21:12.971Z,28.0945
2019-04-05T07:21:25.215Z,28.1921
2019-04-05T07:21:37.453Z,28.1921
2019-04-05T07:21:49.738Z,28.4973
2019-04-05T07:22:01.981Z,28.1921
2019-04-05T07:22:14.231Z,28.0945
2019-04-05T07:22:37.073Z,27.9968
2019-04-05T07:22:44.736Z,28.1921
2019-04-05T07:22:57.057Z,28.3936
2019-04-05T07:23:09.901Z,29.5959
2019-04-05T07:23:22.101Z,29.2969
2019-04-05T07:23:34.313Z,28.7964
2019-04-05T07:23:46.532Z,29.0955
2019-04-05T07:23:58.793Z,28.8940
2019-04-05T07:24:10.979Z,28.9978
2019-04-05T07:24:23.180Z,28.4973
2019-04-05T07:24:35.433Z,28.8940
2019-04-05T07:24:49.495Z,28.8940
2019-04-05T07:25:01.932Z,28.6926
2019-04-05T07:25:14.116Z,28.4973
2019-04-05T07:25:29.149Z,28.0945
2019-04-05T07:25:41.894Z,27.9968
2019-04-05T07:25:54.123Z,27.8931
2019-04-05T07:26:06.421Z,27.8931
2019-04-05T07:26:23.562Z,27.9968
2019-04-05T07:26:35.731Z,27.9968
2019-04-05T07:26:42.594Z,27.8931
2019-04-05T07:26:54.799Z,27.9968
2019-04-05T07:27:07.147Z,27.8931
2019-04-05T07:27:19.323Z,27.8931
2019-04-05T07:27:31.517Z,31.3782
2019-04-05T07:27:43.692Z,29.5837
2019-04-05T07:27:55.896Z,28.2837
2019-04-05T07:28:08.103Z,28.3691
2019-04-05T07:28:20.281Z,27.9663
2019-04-05T07:28:32.505Z,27.4658
2019-04-05T07:28:44.702Z,27.3682
2019-04-05T07:28:56.915Z,28.3691
2019-04-05T07:29:09.175Z,27.6672
2019-04-05T07:29:21.367Z,27.4658
2019-04-05T07:29:33.593Z,27.3682
2019-04-05T07:29:45.794Z,27.2705
2019-04-05T07:29:58.005Z,27.2705
2019-04-05T07:30:04.594Z,27.2705
2019-04-05T07:35:42.672Z,27.0569
2019-04-05T07:35:47.926Z,26.8555
2019-04-05T07:35:53.178Z,26.7578
2019-04-05T07:35:58.437Z,26.7578
2019-04-05T07:36:03.753Z,26.7578
2019-04-05T07:36:09.034Z,26.6541
2019-04-05T07:36:14.291Z,26.6541
2019-04-05T07:36:19.600Z,26.7578
2019-04-05T07:36:24.876Z,26.7456
2019-04-05T07:36:30.142Z,26.7456
2019-04-05T07:36:47.755Z,26.8433
2019-04-05T07:36:53.003Z,26.7456
2019-04-05T07:36:58.251Z,26.7456
2019-04-05T07:37:03.525Z,26.6418
2019-04-05T07:37:08.885Z,26.6418
2019-04-05T07:37:14.139Z,26.6418
2019-04-05T07:37:19.384Z,26.6418
2019-04-05T07:37:24.634Z,26.6418
2019-04-05T07:37:29.905Z,26.6418
2019-04-05T07:37:35.152Z,26.6418
2019-04-05T07:37:40.383Z,26.7456
2019-04-05T07:37:45.625Z,29.6387
2019-04-05T07:37:50.886Z,30.3345
2019-04-05T07:37:56.135Z,76.2878
2019-04-05T07:38:01.381Z,99.9939
2019-04-05T07:38:09.523Z,99.9939
2019-04-05T07:38:15.056Z,96.5942
2019-04-05T07:38:20.301Z,75.1831
2019-04-05T07:38:25.546Z,57.1655
2019-04-05T07:38:30.779Z,49.3347
2019-04-05T07:38:36.023Z,46.0754
2019-04-05T07:38:41.269Z,43.7073
2019-04-05T07:38:46.559Z,42.5293
2019-04-05T07:38:51.832Z,40.5579
2019-04-05T07:38:57.094Z,38.5864
2019-04-05T07:39:02.335Z,34.6924
2019-04-05T07:39:07.657Z,31.2073
2019-04-05T07:39:12.907Z,29.2114
2019-04-05T07:39:18.177Z,28.2288
2019-04-05T07:39:23.675Z,27.7283
2019-04-05T07:39:28.918Z,27.5269
2019-04-05T07:39:34.205Z,27.3315
2019-04-05T07:39:39.784Z,27.3315
2019-04-05T07:39:45.065Z,27.3438
2019-04-05T07:39:50.294Z,27.3438
2019-04-05T07:39:55.554Z,27.3438
2019-04-05T07:40:00.803Z,27.4414
2019-04-05T07:40:06.043Z,27.4414
2019-04-05T07:40:11.278Z,27.3560
2019-04-05T07:40:16.517Z,27.3560
2019-04-05T07:40:21.759Z,27.3560
2019-04-05T07:40:27.018Z,27.4536
2019-04-05T07:40:32.263Z,27.6550
2019-04-05T07:40:37.503Z,27.6672
2019-04-05T07:40:42.743Z,27.6672
2019-04-05T07:40:48.358Z,27.7710
2019-04-05T07:40:56.049Z,27.7710
2019-04-05T07:41:01.859Z,27.9663
2019-04-05T07:41:07.114Z,27.7710
2019-04-05T07:41:12.350Z,27.7710
2019-04-05T07:41:17.588Z,27.7710
2019-04-05T07:41:22.833Z,27.8687
2019-04-05T07:41:28.183Z,27.8687
2019-04-05T07:41:33.728Z,27.8809
2019-04-05T07:41:38.996Z,27.8809
2019-04-05T07:41:44.250Z,27.9846
2019-04-05T07:41:49.611Z,27.9846
2019-04-05T07:41:54.937Z,27.9846
2019-04-05T07:42:00.187Z,28.0823
2019-04-05T07:42:05.546Z,28.0823
2019-04-05T07:42:10.800Z,28.4790
2019-04-05T07:42:16.105Z,29.1687
2019-04-05T07:42:21.367Z,28.9673
2019-04-05T07:42:26.678Z,28.3691
2019-04-05T07:42:31.964Z,27.9663
2019-04-05T07:42:37.305Z,27.8687
2019-04-05T07:42:42.585Z,27.5696
2019-04-05T07:42:47.866Z,27.5696
2019-04-05T07:42:53.142Z,27.5696
2019-04-05T07:42:58.405Z,27.5696
2019-04-05T07:43:03.685Z,27.5696
2019-04-05T07:43:08.990Z,27.5818
2019-04-05T07:43:30.405Z,27.6794
2019-04-05T07:43:51.829Z,27.5818
2019-04-05T07:44:19.876Z,28.7842
2019-04-05T07:44:25.132Z,28.2837
2019-04-05T07:44:30.381Z,29.6814
2019-04-05T07:44:35.605Z,29.0649
2019-04-05T07:44:41.049Z,28.1677
2019-04-05T07:44:46.391Z,27.6794
2019-04-05T07:44:51.632Z,27.4841
2019-04-05T07:44:56.844Z,27.4841
2019-04-05T07:45:02.068Z,27.4841
2019-04-05T07:45:07.314Z,27.4841
2019-04-05T07:45:12.544Z,27.5818
2019-04-05T07:45:35.140Z,27.6794
2019-04-05T07:45:47.399Z,28.0823
2019-04-05T07:45:59.648Z,27.9846
2019-04-05T07:46:11.909Z,27.9846
2019-04-05T07:46:24.171Z,98.7732
2019-04-05T07:46:36.461Z,99.9939
2019-04-05T07:47:05.459Z,58.8928
2019-04-05T07:47:17.718Z,37.3047
2019-04-05T07:47:29.975Z,29.9255
2019-04-05T07:47:42.246Z,28.5400
2019-04-05T07:47:54.496Z,34.1309
2019-04-05T07:48:06.792Z,99.9939
2019-04-05T07:48:19.067Z,99.9939
2019-04-05T07:48:43.865Z,62.8723
2019-04-05T07:48:49.565Z,36.0046
2019-04-05T07:49:01.813Z,29.9500
2019-04-05T07:49:14.080Z,27.9724
2019-04-05T07:49:26.378Z,27.1912
2019-04-05T07:49:38.746Z,27.3926
2019-04-05T07:49:51.055Z,27.2034
2019-04-05T07:50:26.425Z,26.9165
2019-04-05T07:51:01.755Z,27.1301
2019-04-05T07:51:37.158Z,27.3438
2019-04-05T07:52:13.157Z,27.5574
2019-04-05T07:52:48.651Z,27.5696
2019-04-05T07:53:17.375Z,27.6672
2019-04-05T07:53:42.969Z,27.5696
2019-04-05T07:54:20.028Z,27.4658
2019-04-05T07:54:57.283Z,28.1677
2019-04-05T07:55:34.552Z,28.6682
2019-04-05T07:56:11.795Z,27.1667
2019-04-05T07:56:49.115Z,26.9714
2019-04-05T07:57:26.364Z,27.4658
2019-04-05T07:58:03.697Z,26.9836
2019-04-05T07:58:40.974Z,27.4841
2019-04-05T07:59:20.818Z,26.6846
2019-04-05T07:59:58.371Z,26.8921
2019-04-05T08:00:35.637Z,26.6968
2019-04-05T08:01:12.919Z,26.5930
2019-04-05T08:01:50.215Z,26.7944
2019-04-05T08:02:27.482Z,26.9958
2019-04-05T08:03:04.752Z,27.0935
2019-04-05T08:03:41.997Z,27.2949
2019-04-05T08:04:19.310Z,28.2959
2019-04-05T08:04:56.576Z,26.5930
2019-04-05T08:05:33.855Z,26.3977
2019-04-05T08:06:11.139Z,26.4954
2019-04-05T08:06:48.487Z,26.6052
2019-04-05T08:07:25.748Z,26.7090
2019-04-05T08:08:03.096Z,27.0081
2019-04-05T08:08:40.379Z,27.2095
2019-04-05T08:09:17.678Z,27.1057
2019-04-05T08:09:54.927Z,27.0081
2019-04-05T08:10:32.262Z,26.8066
2019-04-05T08:11:09.540Z,26.9104
2019-04-05T08:11:46.830Z,26.9104
2019-04-05T08:12:24.072Z,27.2095
2019-04-05T08:13:01.391Z,27.3071
2019-04-05T08:13:38.632Z,27.0935
2019-04-05T08:14:17.962Z,27.2949
2019-04-05T08:14:55.514Z,27.1973
2019-04-05T08:15:32.943Z,27.1973
2019-04-05T08:16:10.371Z,27.2949
2019-04-05T08:16:47.647Z,28.5950
2019-04-05T08:17:24.882Z,27.9968
2019-04-05T08:18:02.188Z,27.7954
2019-04-05T08:18:39.442Z,27.5940
2019-04-05T08:19:16.724Z,27.4963
2019-04-05T08:19:54.016Z,27.5940
2019-04-05T08:20:31.317Z,27.5940
2019-04-05T08:21:08.551Z,27.5940
2019-04-05T08:21:45.882Z,27.5818
2019-04-05T08:22:23.134Z,27.5818
2019-04-05T08:23:00.398Z,27.6794
2019-04-05T08:23:37.652Z,27.6794
2019-04-05T08:24:14.935Z,27.6794
2019-04-05T08:24:52.193Z,27.6794
2019-04-05T08:25:29.529Z,27.6794
2019-04-05T08:26:06.793Z,27.6794
2019-04-05T08:26:44.183Z,27.6794
2019-04-05T08:27:21.420Z,27.6794
2019-04-05T08:27:58.739Z,27.5818
2019-04-05T08:28:36.139Z,27.6794
2019-04-05T08:29:13.423Z,27.6794
2019-04-05T08:29:50.673Z,27.6794
2019-04-05T08:30:27.951Z,27.7832
2019-04-05T08:31:05.219Z,27.7832
2019-04-05T08:31:42.503Z,27.7832
2019-04-05T08:32:19.756Z,27.7832
2019-04-05T08:32:57.045Z,27.7832
2019-04-05T08:33:36.410Z,27.8809
2019-04-05T08:34:13.947Z,27.8809
2019-04-05T08:34:51.231Z,27.8809
2019-04-05T08:35:28.585Z,27.8809
2019-04-05T08:36:05.856Z,27.8809
2019-04-05T08:36:43.159Z,27.8809
2019-04-05T08:37:20.470Z,27.8809
2019-04-05T08:37:57.774Z,27.8809
2019-04-05T08:38:35.043Z,27.9846
2019-04-05T08:39:12.353Z,27.9846
2019-04-05T08:39:49.623Z,27.9846
2019-04-05T08:40:27.108Z,28.0823
2019-04-05T08:41:04.362Z,28.1799
2019-04-05T08:41:41.919Z,28.0823
2019-04-05T08:42:19.175Z,28.0823
2019-04-05T08:42:56.447Z,28.0823
2019-04-05T08:43:33.738Z,28.0823
2019-04-05T08:44:11.055Z,28.5828
2019-04-05T08:44:48.321Z,28.2837
2019-04-05T09:53:12.812Z,29.1931
2019-04-05T09:53:50.078Z,28.9978
2019-04-05T09:54:27.424Z,29.0955
2019-04-05T09:55:04.676Z,29.0955
2019-04-05T09:55:42.004Z,29.1931
2019-04-05T09:56:19.260Z,29.1931
2019-04-05T09:56:56.972Z,29.2969
2019-04-05T09:57:34.283Z,29.0955
2019-04-05T09:58:11.569Z,29.1931
2019-04-05T09:58:48.810Z,29.1931
2019-04-05T09:59:26.115Z,29.3945
2019-04-05T10:00:03.452Z,28.3936
2019-04-05T10:00:40.754Z,28.3936
2019-04-05T10:01:18.087Z,28.4973
2019-04-05T10:01:55.379Z,28.6926
2019-04-05T10:02:32.669Z,28.9978
2019-04-05T10:03:09.963Z,29.0955
2019-04-05T10:03:47.251Z,28.9978
2019-04-05T10:04:24.539Z,28.9978
2019-04-05T10:05:01.910Z,29.0955
2019-04-05T10:05:39.247Z,29.1931
2019-04-05T10:06:16.527Z,29.1931
2019-04-05T10:06:54.567Z,28.6926
2019-04-05T10:07:55.859Z,29.2969
2019-04-05T10:08:56.377Z,29.2969
2019-04-05T10:09:50.720Z,30.9509
2019-04-05T10:10:28.021Z,28.4241
2019-04-05T10:11:05.300Z,28.3020
2019-04-05T10:11:42.532Z,26.5930
2019-04-05T10:12:19.784Z,25.8972
2019-04-05T10:12:56.997Z,25.9949
2019-04-05T10:13:39.277Z,26.1719
2019-04-05T10:14:16.529Z,25.9583
2019-04-05T10:14:53.825Z,27.1362
2019-04-05T10:15:31.073Z,26.0315
2019-04-05T10:16:08.350Z,26.2329
2019-04-05T10:16:45.564Z,25.7324
2019-04-05T10:17:22.874Z,24.8413
2019-04-05T11:27:43.137Z,30.2795
2019-04-05T11:29:08.798Z,29.4678
2019-04-05T11:29:47.228Z,28.0701
2019-04-05T11:30:26.927Z,27.8564
2019-04-05T11:31:04.426Z,27.8564
2019-04-05T11:32:00.830Z,27.8442
2019-04-05T11:32:38.038Z,27.7405
2019-04-05T11:33:15.367Z,27.5452
2019-04-05T11:33:52.575Z,27.8259
2019-04-05T11:34:55.622Z,27.6428
2019-04-05T11:35:32.839Z,27.3438
2019-04-05T11:36:11.572Z,27.6306
2019-04-05T11:36:50.891Z,27.0325
2019-04-05T11:39:30.238Z,27.9297
2019-04-05T11:40:08.536Z,26.9165
2019-04-05T11:40:46.927Z,27.2156
2019-04-05T11:41:25.257Z,27.2278
2019-04-05T11:42:03.629Z,27.0325
2019-04-05T11:42:41.929Z,27.8259
2019-04-05T11:44:42.919Z,27.8259
2019-04-05T11:45:20.239Z,26.7334
2019-04-05T11:45:58.589Z,26.5320
2019-04-05T11:46:36.878Z,26.5320
2019-04-05T11:47:17.135Z,26.5320
2019-04-05T11:47:57.712Z,26.6296
2019-04-05T11:48:36.709Z,26.7334
2019-04-05T11:49:14.990Z,26.8311
2019-04-05T11:49:55.137Z,26.8311
2019-04-05T11:50:34.920Z,26.8311
2019-04-05T11:51:13.615Z,27.1301
2019-04-05T12:12:17.268Z,40.0146
2019-04-05T12:12:55.545Z,43.4265
2019-04-05T12:13:33.895Z,45.1172
2019-04-05T12:14:12.202Z,44.6289
2019-04-05T12:14:50.554Z,45.8496
2019-04-05T12:15:28.862Z,47.6868
2019-04-05T12:16:10.276Z,46.9727
2019-04-05T12:16:48.805Z,45.9534
2019-04-05T12:17:27.219Z,45.3430
2019-04-05T12:18:05.512Z,44.7327
2019-04-05T12:18:43.845Z,45.4224
2019-04-05T12:19:22.143Z,45.4224
2019-04-05T12:20:00.597Z,44.9951
2019-04-05T12:20:49.479Z,44.2810
2019-04-05T12:21:24.246Z,43.8538
2019-04-05T12:22:04.771Z,43.5486
2019-04-05T12:22:43.871Z,43.2434
2019-04-05T12:23:22.151Z,43.1396
2019-04-05T12:24:00.503Z,43.2251
2019-04-05T12:24:40.296Z,43.3228
2019-04-05T12:25:26.640Z,43.2007
2019-04-05T12:26:12.920Z,42.8955
2019-04-05T12:26:59.478Z,42.4744
2019-04-05T12:27:45.788Z,42.3523
2019-04-05T12:28:32.203Z,41.8213
2019-04-05T12:29:18.487Z,41.3147
2019-04-05T12:30:04.820Z,40.8875
2019-04-05T12:30:50.104Z,40.7898
2019-04-05T12:31:36.431Z,40.6677
2019-04-05T12:32:32.776Z,40.6494
2019-04-05T12:33:14.939Z,40.4297
2019-04-05T12:34:01.359Z,40.5884
2019-04-05T12:34:49.476Z,39.8621
2019-04-05T12:35:37.937Z,40.4358
2019-04-05T12:36:24.286Z,40.0085
2019-04-05T12:37:10.559Z,39.8682
2019-04-05T12:37:56.925Z,39.1479
2019-04-05T12:38:45.077Z,38.4216
2019-04-05T12:39:31.514Z,38.0005
2019-04-05T12:40:17.874Z,38.0981
2019-04-05T12:41:04.294Z,37.8174
2019-04-05T12:41:50.603Z,37.8174
2019-04-05T12:42:36.945Z,37.8357
2019-04-05T12:43:23.269Z,38.0371
2019-04-05T12:44:14.173Z,38.0554
2019-04-05T12:45:02.453Z,38.5742
2019-04-05T12:45:48.760Z,38.4949
2019-04-05T12:46:35.079Z,38.7146
2019-04-05T12:47:21.398Z,38.9160
2019-04-05T12:48:07.675Z,39.1174
2019-04-05T12:48:53.986Z,39.1357
2019-04-05T12:49:40.259Z,39.4409
2019-04-05T12:50:26.576Z,39.3372
2019-04-05T12:51:15.440Z,39.5386
2019-04-05T12:52:02.536Z,39.6423
2019-04-05T12:52:48.882Z,39.3188
2019-04-05T12:53:35.212Z,39.1174
2019-04-05T12:54:21.501Z,38.9160
2019-04-05T12:55:07.831Z,39.0198
2019-04-05T12:55:56.906Z,39.1174
2019-04-05T12:56:43.423Z,39.0198
2019-04-05T12:57:29.697Z,39.0381
2019-04-05T12:58:15.998Z,39.2395
2019-04-05T12:59:02.289Z,39.2578
2019-04-05T12:59:51.170Z,39.4775
2019-04-05T13:00:38.927Z,39.5813
2019-04-05T13:01:25.417Z,39.8010
2019-04-05T13:02:14.103Z,40.0208
2019-04-05T13:03:03.038Z,40.2222
2019-04-05T13:03:51.161Z,40.3442
2019-04-05T13:04:38.107Z,40.5640
2019-04-05T13:05:23.434Z,40.9729
2019-04-05T13:06:09.775Z,40.9912
2019-04-05T13:06:56.063Z,41.0950
2019-04-05T13:07:42.429Z,41.2109
2019-04-05T13:08:28.727Z,41.4185
2019-04-05T13:09:14.212Z,41.5161
2019-04-05T13:10:00.605Z,41.5405
2019-04-05T13:10:47.005Z,41.6382
2019-04-05T13:11:32.331Z,41.7603
2019-04-05T13:12:18.737Z,41.7603
2019-04-05T13:13:05.012Z,41.7603
2019-04-05T13:13:51.336Z,41.9861
2019-04-05T13:14:37.627Z,42.3889
2019-04-05T13:15:24.030Z,42.1875
2019-04-05T13:16:11.180Z,42.4072
2019-04-05T13:17:01.791Z,42.7124
2019-04-05T13:17:48.836Z,42.8162
2019-04-05T13:18:35.145Z,42.9199
2019-04-05T13:19:21.535Z,42.8162
2019-04-05T13:20:07.828Z,42.6147
2019-04-05T13:20:54.158Z,42.5110
2019-04-05T13:21:40.435Z,42.5110
2019-04-05T13:22:26.774Z,42.8345
2019-04-05T13:23:13.042Z,43.0420
2019-04-05T13:23:58.392Z,42.9382
2019-04-05T13:24:44.675Z,42.8345
2019-04-05T13:25:30.996Z,42.8345
2019-04-05T13:26:12.291Z,42.6331
2019-04-05T13:27:01.774Z,42.6331
2019-04-05T13:27:48.415Z,42.5110
2019-04-05T13:28:34.734Z,42.5110
2019-04-05T13:29:21.024Z,42.4072
2019-04-05T13:30:07.365Z,42.5110
2019-04-05T13:30:55.411Z,42.7124
2019-04-05T13:31:42.062Z,42.6147
2019-04-05T13:32:28.368Z,43.2251
2019-04-05T13:33:14.744Z,42.8162
2019-04-05T13:34:01.024Z,42.8162
2019-04-05T13:34:47.499Z,42.8162
2019-04-05T13:35:32.809Z,42.8162
2019-04-05T13:36:19.164Z,42.7124
2019-04-05T13:37:05.467Z,42.7124
2019-04-05T13:37:52.014Z,42.9199
2019-04-05T13:38:38.363Z,42.7124
2019-04-05T13:39:24.740Z,42.9199
2019-04-05T13:40:11.029Z,42.6941
2019-04-05T13:41:01.286Z,42.4927
2019-04-05T13:41:48.384Z,42.3889
2019-04-05T13:42:35.429Z,42.3889
2019-04-05T13:43:21.998Z,42.3889
2019-04-05T13:44:08.272Z,42.3889
2019-04-05T13:44:54.742Z,42.2913
2019-04-05T13:45:41.052Z,42.1875
2019-04-05T13:46:27.482Z,42.2913
2019-04-05T13:47:13.783Z,42.3889
2019-04-05T13:48:00.133Z,42.3889
2019-04-05T13:48:46.484Z,42.6941
2019-04-05T13:49:33.383Z,42.4927
2019-04-05T13:50:19.814Z,42.5903
2019-04-05T13:51:07.327Z,42.8955
2019-04-05T13:51:53.695Z,42.8162
2019-04-05T13:52:42.113Z,42.6147
2019-04-05T13:53:28.627Z,42.7124
2019-04-05T13:54:13.998Z,42.9199
2019-04-05T13:55:00.307Z,43.1213
2019-04-05T13:55:47.536Z,43.1213
2019-04-05T13:56:33.930Z,42.9199
2019-04-05T13:57:20.297Z,42.9199
2019-04-05T13:58:10.865Z,42.9199
2019-04-05T13:58:57.509Z,43.2434
2019-04-05T13:59:44.765Z,43.5486
2019-04-05T14:00:31.215Z,43.4448
2019-04-05T14:01:20.287Z,43.5669
2019-04-05T14:02:06.950Z,43.5669
2019-04-05T14:02:53.257Z,43.6707
2019-04-05T14:03:39.625Z,43.7744
2019-04-05T14:04:24.913Z,43.6707
2019-04-05T14:05:03.320Z,43.6707
2019-04-05T14:05:50.042Z,43.7927
2019-04-05T14:06:37.603Z,44.0002
2019-04-05T14:07:25.307Z,43.8965
2019-04-05T14:08:11.723Z,43.7927
2019-04-05T14:08:58.017Z,43.7927
2019-04-05T14:09:44.357Z,43.7927
2019-04-05T14:10:30.645Z,43.8965
2019-04-05T14:11:16.001Z,43.8965
2019-04-05T14:12:02.299Z,43.8110
2019-04-05T14:12:48.651Z,43.9148
2019-04-05T14:13:34.987Z,43.9148
2019-04-05T14:14:21.477Z,44.0186
2019-04-05T14:15:10.871Z,44.2444
2019-04-05T14:15:58.197Z,44.3420
2019-04-05T14:16:43.666Z,44.3420
2019-04-05T14:17:30.199Z,44.4458
2019-04-05T14:18:16.257Z,44.3420
2019-04-05T14:19:01.610Z,44.6472
2019-04-05T14:19:48.745Z,44.3420
2019-04-05T14:20:35.892Z,44.2444
2019-04-05T14:21:22.488Z,44.5496
2019-04-05T14:22:09.339Z,44.2444
2019-04-05T14:22:55.681Z,44.4458
2019-04-05T14:23:42.015Z,44.2444
2019-04-05T14:24:28.306Z,44.4458
2019-04-05T14:25:14.659Z,44.4458
2019-04-05T14:26:00.950Z,44.3420
2019-04-05T14:26:47.281Z,44.2444
2019-04-05T14:27:34.774Z,44.1406
2019-04-05T14:28:21.473Z,44.0369
2019-04-05T14:29:07.761Z,44.0369
2019-04-05T14:29:54.121Z,44.1406
2019-04-05T14:30:40.425Z,44.2444
2019-04-05T14:31:26.775Z,44.1406
2019-04-05T14:32:21.184Z,44.1406
2019-04-05T14:33:04.387Z,44.1406
2019-04-05T14:33:54.235Z,44.0369
2019-04-05T14:34:41.109Z,43.9148
2019-04-05T14:35:26.427Z,43.8110
2019-04-05T14:36:12.773Z,43.6096
2019-04-05T14:36:59.069Z,43.5059
2019-04-05T14:37:45.989Z,43.6096
2019-04-05T14:38:32.263Z,43.5059
2019-04-05T14:39:18.628Z,43.7134
2019-04-05T14:40:04.911Z,43.7134
2019-04-05T14:40:50.273Z,43.6096
2019-04-05T14:41:36.572Z,43.8110
2019-04-05T14:42:22.924Z,43.7134
2019-04-05T14:43:09.239Z,43.6096
2019-04-05T14:43:55.569Z,43.5913
2019-04-05T14:44:41.892Z,44.1223
2019-04-05T14:45:28.244Z,44.1223
2019-04-05T14:46:14.543Z,44.1223
2019-04-05T14:47:00.882Z,44.2200
2019-04-05T14:47:47.182Z,44.4275
2019-04-05T14:48:33.504Z,44.4458
2019-04-05T14:49:19.778Z,44.4458
2019-04-05T14:50:06.097Z,44.5496
2019-04-05T14:50:52.392Z,44.6716
2019-04-05T14:51:38.726Z,44.9768
2019-04-05T14:52:25.761Z,45.2820
2019-04-05T14:53:12.235Z,44.9768
2019-04-05T14:54:01.432Z,44.9768
2019-04-05T14:54:48.018Z,45.0806
2019-04-05T14:55:34.290Z,45.0806
2019-04-05T14:56:20.643Z,45.0806
2019-04-05T14:57:06.163Z,44.9951
2019-04-05T14:57:52.565Z,44.9951
2019-04-05T14:58:38.849Z,44.9951
2019-04-05T14:59:25.193Z,45.0989
2019-04-05T15:00:14.793Z,45.0989
2019-04-05T15:01:01.445Z,45.2026
2019-04-05T15:01:47.751Z,45.0989
2019-04-05T15:02:34.135Z,45.0989
2019-04-05T15:03:20.442Z,44.9951
2019-04-05T15:04:06.799Z,44.8975
2019-04-05T15:04:53.075Z,44.8975
2019-04-05T15:05:39.552Z,44.8975
2019-04-05T15:06:26.769Z,44.8975
2019-04-05T15:07:13.248Z,44.8975
2019-04-05T15:07:59.695Z,44.8975
2019-04-05T15:08:47.925Z,44.8975
2019-04-05T15:09:34.470Z,44.8975
2019-04-05T15:10:21.055Z,45.0989
2019-04-05T15:11:07.356Z,45.1233
2019-04-05T15:11:53.706Z,45.0195
2019-04-05T15:12:39.990Z,45.0195
2019-04-05T15:13:26.342Z,45.2209
2019-04-05T15:14:12.633Z,45.1233
2019-04-05T15:14:58.992Z,45.1233
2019-04-05T15:15:45.318Z,45.2209
2019-04-05T15:16:31.661Z,45.1233
2019-04-05T15:17:18.054Z,45.4285
2019-04-05T15:18:04.412Z,45.2209
2019-04-05T15:18:50.698Z,45.5322
2019-04-05T15:19:36.040Z,45.4285
2019-04-05T15:20:22.355Z,45.3247
2019-04-05T15:21:08.718Z,45.3247
2019-04-05T15:22:05.185Z,45.3247
2019-04-05T15:22:46.332Z,45.4285
2019-04-05T15:23:32.665Z,45.4285
2019-04-05T15:24:18.995Z,45.4285
2019-04-05T15:25:05.277Z,45.4285
2019-04-05T15:25:51.643Z,45.2209
2019-04-05T15:26:37.924Z,45.2026
2019-04-05T15:27:26.272Z,45.2026
2019-04-05T15:28:14.621Z,45.2026
2019-04-05T15:29:00.958Z,45.2026
2019-04-05T15:29:47.252Z,45.2026
2019-04-05T15:30:32.615Z,45.2026
2019-04-05T15:31:18.891Z,45.3064
2019-04-05T15:32:05.319Z,45.3064
2019-04-05T15:32:51.690Z,45.4041
2019-04-05T15:33:38.107Z,45.3064
2019-04-05T15:34:23.413Z,45.3064
2019-04-05T15:35:11.750Z,45.4041
2019-04-05T15:36:02.831Z,45.5078
2019-04-05T15:36:49.513Z,45.3064
2019-04-05T15:37:37.519Z,45.3064
2019-04-05T15:38:26.214Z,45.5078
2019-04-05T15:39:13.603Z,45.4041
2019-04-05T15:40:00.395Z,45.4041
2019-04-05T15:40:47.209Z,45.4285
2019-04-05T15:41:33.498Z,45.5322
2019-04-05T15:42:19.824Z,45.5322
2019-04-05T15:43:06.123Z,45.6299
2019-04-05T15:43:52.543Z,45.6299
2019-04-05T15:44:38.835Z,45.7336
2019-04-05T15:45:25.176Z,45.7581
2019-04-05T15:46:11.459Z,45.8557
2019-04-05T15:46:57.791Z,45.8557
2019-04-05T15:47:44.081Z,45.8557
2019-04-05T15:48:30.685Z,45.8557
2019-04-05T15:49:17.008Z,45.8557
2019-04-05T15:50:05.400Z,45.8557
2019-04-05T15:50:55.888Z,45.9595
2019-04-05T15:51:43.031Z,45.9595
2019-04-05T15:52:32.006Z,45.9595
2019-04-05T15:53:18.578Z,46.0632
2019-04-05T15:54:04.864Z,46.0632
2019-04-05T15:54:51.192Z,46.1609
2019-04-05T15:55:37.482Z,46.1609
2019-04-05T15:56:23.828Z,46.1609
2019-04-05T15:57:09.109Z,46.1609
2019-04-05T15:57:55.478Z,46.1609
2019-04-05T15:58:41.887Z,46.1609
2019-04-05T15:59:28.247Z,46.1609
2019-04-05T16:00:14.533Z,46.2646
2019-04-05T16:01:04.156Z,46.2646
2019-04-05T16:01:51.093Z,46.2646
2019-04-05T16:02:37.439Z,46.2646
2019-04-05T16:03:23.714Z,46.2646
2019-04-05T16:04:10.044Z,46.7957
2019-04-05T16:04:56.364Z,47.1069
2019-04-05T16:05:41.701Z,47.2046
2019-04-05T16:06:27.993Z,47.0032
2019-04-05T16:07:14.359Z,47.1252
2019-04-05T16:08:00.643Z,47.2290
2019-04-05T16:08:46.983Z,47.5342
2019-04-05T16:09:33.290Z,47.4365
2019-04-05T16:10:19.629Z,47.3511
2019-04-05T16:11:05.919Z,47.4548
2019-04-05T16:11:52.268Z,47.5586
2019-04-05T16:12:38.577Z,47.5586
2019-04-05T16:13:24.919Z,47.4548
2019-04-05T16:14:11.217Z,47.4548
2019-04-05T16:14:57.580Z,47.4548
2019-04-05T16:15:43.885Z,47.4548
2019-04-05T16:16:29.255Z,47.3511
2019-04-05T16:17:15.557Z,47.3511
2019-04-05T16:18:02.927Z,47.4548
2019-04-05T16:18:48.261Z,47.4548
2019-04-05T16:19:34.605Z,47.4548
2019-04-05T16:20:20.949Z,47.4548
2019-04-05T16:21:07.321Z,47.4548
2019-04-05T16:21:53.605Z,47.4548
2019-04-05T16:22:41.940Z,47.4548
2019-04-05T16:23:27.935Z,47.3511
2019-04-05T16:24:14.227Z,47.3511
2019-04-05T16:25:03.784Z,47.3511
2019-04-05T16:25:50.264Z,47.3511
2019-04-05T16:26:36.673Z,47.3511
2019-04-05T16:27:22.965Z,47.4548
2019-04-05T16:28:09.285Z,47.2534
2019-04-05T16:28:55.598Z,47.3511
2019-04-05T16:29:41.961Z,47.3511
2019-04-05T16:30:28.257Z,47.3511
2019-04-05T16:31:15.615Z,47.5586
2019-04-05T16:32:01.908Z,47.4548
2019-04-05T16:32:48.278Z,47.6807
2019-04-05T16:33:34.575Z,47.6807
2019-04-05T16:34:20.927Z,47.7844
2019-04-05T16:35:07.258Z,47.8882
2019-04-05T16:35:53.649Z,47.8882
2019-04-05T16:36:39.935Z,48.2178
2019-04-05T16:37:26.314Z,48.1140
2019-04-05T16:38:12.601Z,48.1140
2019-04-05T16:38:59.101Z,48.3215
2019-04-05T16:39:45.384Z,48.3398
2019-04-05T16:40:31.787Z,48.4436
2019-04-05T16:41:17.084Z,48.5474
2019-04-05T16:42:03.497Z,48.6511
2019-04-05T16:43:01.461Z,48.7488
2019-04-05T16:43:40.073Z,48.8770
2019-04-05T16:44:26.387Z,48.9807
2019-04-05T16:45:12.765Z,48.9807
2019-04-05T16:45:59.054Z,49.1821
2019-04-05T16:46:45.390Z,49.3103
2019-04-05T16:47:31.686Z,49.4141
2019-04-05T16:48:18.031Z,49.5117
2019-04-05T16:49:03.345Z,49.6399
2019-04-05T16:49:48.675Z,49.8474
2019-04-05T16:50:34.963Z,50.0488
2019-04-05T16:51:21.300Z,50.2808
2019-04-05T16:52:07.616Z,50.3784
2019-04-05T16:52:53.970Z,50.5859
2019-04-05T16:53:39.266Z,50.8179
2019-04-05T16:54:26.478Z,51.0193
2019-04-05T16:55:12.770Z,51.2512
2019-04-05T16:55:58.126Z,51.4526
2019-04-05T16:56:44.426Z,51.6602
2019-04-05T16:57:30.813Z,51.9897
2019-04-05T16:58:17.105Z,52.0935
2019-04-05T16:59:03.617Z,52.3254
2019-04-05T16:59:49.918Z,52.6367
2019-04-05T17:00:36.266Z,52.8625
2019-04-05T17:01:27.197Z,53.0945
2019-04-05T17:02:13.888Z,53.4058
2019-04-05T17:03:00.188Z,53.6316
2019-04-05T17:03:48.550Z,53.9429
2019-04-05T17:04:34.920Z,54.2786
2019-04-05T17:05:21.205Z,54.6082
2019-04-05T17:06:07.601Z,54.8401
2019-04-05T17:06:53.905Z,55.1514
2019-04-05T17:07:40.362Z,55.4871
2019-04-05T17:08:26.646Z,55.7983
2019-04-05T17:09:13.074Z,56.1340
2019-04-05T17:09:59.380Z,56.2317
2019-04-05T17:10:45.760Z,56.2317